Time;durP1;ratioP1;P1;durP2;ratioP2;P2;SDS_P1;SDS_P2;PMS_P1;PMS_P2;Temp;Humidity;BMP_temperature;BMP_pressure;BME280_temperature;BME280_humidity;BME280_pressure;Samples;Min_cycle;Max_cycle;Signal;HPM_P1;HPM_P2
2022/04/21 00:01:16;;;;;;;;;50.50;44.25;;;;;8.49;65.10;99291.00;5010772;28;8842;-78
2022/04/21 00:03:44;;;;;;;;;51.75;44.00;;;;;8.57;65.24;99275.41;4960475;28;8881;-77
2022/04/21 00:06:13;;;;;;;;;52.50;45.00;;;;;8.67;64.08;99277.16;5006328;28;8832;-76
2022/04/21 00:08:42;;;;;;;;;47.50;42.00;;;;;8.66;63.75;99278.03;5005941;28;8855;-76
2022/04/21 00:11:10;;;;;;;;;45.50;42.00;;;;;8.67;64.19;99276.31;4989542;28;8876;-76
2022/04/21 00:13:39;;;;;;;;;42.00;39.50;;;;;8.56;63.80;99284.06;5005916;28;8844;-77
2022/04/21 00:16:09;;;;;;;;;49.50;41.50;;;;;8.52;64.42;99288.38;5004505;28;9004;-78
2022/04/21 00:18:37;;;;;;;;;42.75;39.25;;;;;8.48;63.62;99289.22;5025827;28;8842;-77
2022/04/21 00:21:07;;;;;;;;;55.00;44.75;;;;;8.40;64.50;99285.72;5023958;28;8835;-76
2022/04/21 00:23:34;;;;;;;;;51.00;40.75;;;;;8.40;63.55;99291.78;5046507;28;9685;-77
2022/04/21 00:26:04;;;;;;;;;48.00;41.25;;;;;8.43;63.94;99285.78;5049417;28;9000;-77
2022/04/21 00:28:33;;;;;;;;;51.75;42.25;;;;;8.31;63.97;99285.69;5032490;28;8841;-76
2022/04/21 00:31:03;;;;;;;;;57.25;44.50;;;;;8.34;63.48;99290.91;5024903;28;8864;-77
2022/04/21 00:33:33;;;;;;;;;49.50;41.50;;;;;8.36;63.33;99284.84;4993379;28;8844;-78
2022/04/21 00:36:02;;;;;;;;;49.75;41.25;;;;;8.40;63.35;99281.38;5009407;28;8879;-77
2022/04/21 00:38:31;;;;;;;;;44.25;40.50;;;;;8.55;62.77;99284.94;4984374;28;8852;-77
2022/04/21 00:40:59;;;;;;;;;55.75;44.75;;;;;8.67;62.71;99279.75;5009160;28;8848;-78
2022/04/21 00:43:30;;;;;;;;;51.50;42.50;;;;;8.70;62.97;99273.72;5025035;28;8895;-76
2022/04/21 00:45:59;;;;;;;;;48.25;42.25;;;;;8.83;62.17;99269.41;5025385;28;8852;-76
2022/04/21 00:48:28;;;;;;;;;51.75;42.50;;;;;8.80;61.43;99274.63;5008846;28;8868;-76
2022/04/21 00:50:58;;;;;;;;;50.50;43.25;;;;;8.75;61.48;99267.69;5025566;28;8856;-77
2022/04/21 00:53:27;;;;;;;;;51.00;44.00;;;;;8.78;62.35;99266.81;5007924;28;8945;-75
2022/04/21 00:55:58;;;;;;;;;50.75;44.00;;;;;8.80;61.60;99259.00;5025373;28;8849;-78
2022/04/21 00:58:27;;;;;;;;;41.50;39.25;;;;;8.87;61.88;99256.44;5025726;28;8856;-79
2022/04/21 01:00:56;;;;;;;;;50.75;43.50;;;;;8.86;61.01;99259.03;5025341;28;8949;-77
2022/04/21 01:03:24;;;;;;;;;51.50;43.25;;;;;8.84;61.03;99258.16;5062554;28;8876;-77
2022/04/21 01:05:53;;;;;;;;;47.25;40.50;;;;;8.69;61.63;99258.97;5049608;28;8864;-78
2022/04/21 01:08:23;;;;;;;;;48.25;41.50;;;;;8.66;61.40;99249.47;5051562;28;8863;-78
2022/04/21 01:10:51;;;;;;;;;44.50;41.75;;;;;8.68;61.50;99245.13;5049653;28;8911;-77
2022/04/21 01:13:20;;;;;;;;;50.25;39.75;;;;;8.66;61.57;99241.66;5050287;28;8844;-77
2022/04/21 01:15:49;;;;;;;;;47.50;41.25;;;;;8.62;61.56;99245.13;5051387;28;8857;-76
2022/04/21 01:18:27;;;;;;;;;47.50;41.75;;;;;8.57;61.76;99242.50;5066606;28;8864;-77
2022/04/21 01:20:57;;;;;;;;;42.75;39.50;;;;;8.59;60.90;99239.91;5066284;28;8837;-78
2022/04/21 01:23:26;;;;;;;;;45.50;40.50;;;;;8.69;60.68;99241.66;5033399;28;9011;-78
2022/04/21 01:25:55;;;;;;;;;44.25;38.75;;;;;8.76;60.26;99242.53;5032867;28;8872;-75
2022/04/21 01:28:25;;;;;;;;;39.00;36.75;;;;;8.79;59.55;99232.16;5083154;28;8865;-77
2022/04/21 01:30:55;;;;;;;;;39.75;38.00;;;;;8.84;59.64;99229.56;5015818;28;9661;-77
2022/04/21 01:33:24;;;;;;;;;54.00;42.50;;;;;8.74;60.47;99228.66;5050294;28;8979;-75
2022/04/21 01:35:53;;;;;;;;;47.50;40.50;;;;;8.92;59.92;99227.81;5066335;28;9590;-76
2022/04/21 01:41:11;;;;;;;;;46.25;40.75;;;;;9.18;58.81;99220.88;5049463;28;8837;-77
2022/04/21 01:43:43;;;;;;;;;42.50;38.25;;;;;9.25;59.19;99216.56;5049911;28;8877;-75
2022/04/21 01:46:12;;;;;;;;;43.50;39.75;;;;;9.25;58.62;99213.09;5048123;28;9041;-76
2022/04/21 01:48:42;;;;;;;;;42.00;39.25;;;;;9.28;59.13;99206.16;5031727;28;8871;-76
2022/04/21 01:51:10;;;;;;;;;42.50;38.50;;;;;9.26;58.81;99201.81;5032893;28;8948;-76
2022/04/21 01:53:41;;;;;;;;;41.50;37.25;;;;;9.22;58.02;99203.53;5032415;28;8852;-75
2022/04/21 01:56:09;;;;;;;;;44.00;38.75;;;;;9.13;59.00;99201.84;5047884;28;8945;-76
2022/04/21 01:58:38;;;;;;;;;34.75;34.00;;;;;9.11;58.93;99203.56;5047861;28;8857;-75
2022/04/21 02:01:07;;;;;;;;;42.00;38.25;;;;;9.07;59.40;99198.34;5067743;28;8853;-78
2022/04/21 02:03:35;;;;;;;;;42.75;39.00;;;;;9.08;59.13;99198.34;5034516;28;8988;-76
2022/04/21 02:06:04;;;;;;;;;47.25;39.00;;;;;9.08;58.72;99202.69;5047915;28;8856;-75
2022/04/21 02:08:33;;;;;;;;;43.50;39.75;;;;;9.12;59.09;99199.22;5056029;28;8950;-75
2022/04/21 02:11:03;;;;;;;;;36.25;35.00;;;;;9.14;58.89;99195.75;5034159;28;8848;-78
2022/04/21 02:13:32;;;;;;;;;39.00;37.00;;;;;9.17;58.31;99193.16;5014148;28;8944;-77
2022/04/21 02:16:00;;;;;;;;;38.25;35.50;;;;;9.16;58.56;99191.41;5031153;28;8839;-76
2022/04/21 02:18:29;;;;;;;;;47.50;41.75;;;;;9.15;58.26;99186.22;5047772;28;8889;-77
2022/04/21 02:20:58;;;;;;;;;48.25;42.25;;;;;9.10;58.56;99180.16;5031334;28;8851;-75
2022/04/21 02:23:27;;;;;;;;;49.50;41.50;;;;;9.04;59.11;99186.22;5034826;28;8844;-77
2022/04/21 02:25:55;;;;;;;;;39.25;33.00;;;;;9.01;59.27;99175.81;5048905;28;8895;-76
2022/04/21 02:28:25;;;;;;;;;45.75;40.00;;;;;8.94;59.53;99184.47;5031525;28;8942;-76
2022/04/21 02:30:55;;;;;;;;;51.75;44.75;;;;;8.90;59.40;99181.03;5058508;28;8858;-76
2022/04/21 02:33:23;;;;;;;;;49.00;40.75;;;;;8.84;59.81;99185.34;5085191;28;8870;-76
2022/04/21 02:35:52;;;;;;;;;44.25;40.75;;;;;8.75;59.69;99187.09;5069886;28;8862;-77
2022/04/21 02:38:21;;;;;;;;;47.00;43.00;;;;;8.69;60.10;99188.78;5070627;28;8839;-76
2022/04/21 02:40:49;;;;;;;;;48.50;41.25;;;;;8.74;60.19;99181.88;5003750;28;8953;-77
2022/04/21 02:43:18;;;;;;;;;53.00;44.00;;;;;8.72;59.96;99183.63;5023321;28;8866;-77
2022/04/21 02:45:48;;;;;;;;;51.75;44.00;;;;;8.70;60.83;99180.16;5072157;28;8885;-78
2022/04/21 02:48:17;;;;;;;;;52.25;43.00;;;;;8.73;60.76;99186.22;5069236;28;8857;-77
2022/04/21 02:50:48;;;;;;;;;50.00;43.50;;;;;8.76;59.72;99185.34;5070147;28;8872;-76
2022/04/21 02:57:19;;;;;;;;;50.25;42.25;;;;;8.77;60.51;99187.06;5051594;28;8833;-77
2022/04/21 02:58:54;;;;;;;;;47.75;40.50;;;;;8.75;59.88;99194.00;5053082;28;8865;-78
2022/04/21 03:01:24;;;;;;;;;54.25;44.75;;;;;8.77;60.50;99187.06;5056921;28;9622;-76
2022/04/21 03:03:54;;;;;;;;;54.00;44.50;;;;;8.79;60.52;99187.97;5058398;28;8850;-76
2022/04/21 03:06:23;;;;;;;;;47.00;42.50;;;;;8.82;60.84;99182.75;5069488;28;8881;-78
2022/04/21 03:08:51;;;;;;;;;54.75;46.00;;;;;8.79;61.15;99177.56;5084536;28;8924;-77
2022/04/21 03:11:20;;;;;;;;;51.75;44.50;;;;;8.76;60.93;99180.16;5046725;28;8868;-77
2022/04/21 03:13:48;;;;;;;;;52.25;43.25;;;;;8.75;61.04;99178.41;5031049;28;8841;-77
2022/04/21 03:16:17;;;;;;;;;49.33;43.33;;;;;8.71;61.21;99169.72;5047659;28;8955;-77
2022/04/21 03:18:47;;;;;;;;;53.25;44.75;;;;;8.69;60.46;99168.00;5047338;28;8876;-76
2022/04/21 03:24:20;;;;;;;;;79.33;62.67;;;;;8.67;60.95;99164.53;5064063;28;8853;-76
2022/04/21 03:26:50;;;;;;;;;50.00;43.00;;;;;8.57;60.79;99166.25;5063748;28;8940;-78
2022/04/21 03:29:19;;;;;;;;;55.50;46.50;;;;;8.59;61.12;99165.38;5029088;28;8860;-76
2022/04/21 03:31:48;;;;;;;;;49.25;42.00;;;;;8.55;60.56;99168.84;5048231;28;8959;-76
2022/04/21 03:34:20;;;;;;;;;47.50;41.50;;;;;8.54;60.87;99171.44;5049345;28;8866;-76
2022/04/21 03:36:50;;;;;;;;;53.00;44.25;;;;;8.52;61.06;99160.19;5084511;28;8858;-76
2022/04/21 03:39:20;;;;;;;;;46.25;42.50;;;;;8.53;61.02;99159.34;5067285;28;8850;-78
2022/04/21 03:41:53;;;;;;;;;52.75;43.50;;;;;8.47;60.37;99161.91;5050548;28;8862;-77
2022/04/21 03:44:22;;;;;;;;;46.50;42.25;;;;;8.45;61.29;99161.91;5058645;28;8867;-77
2022/04/21 03:46:51;;;;;;;;;46.25;39.75;;;;;8.37;61.02;99156.69;5048722;28;10188;-77
2022/04/21 03:49:21;;;;;;;;;47.50;41.75;;;;;8.30;61.11;99157.53;5064068;28;8972;-78
2022/04/21 03:51:50;;;;;;;;;45.50;40.75;;;;;8.28;60.80;99158.38;5048321;28;8844;-78
2022/04/21 03:54:19;;;;;;;;;38.25;33.25;;;;;8.22;60.23;99150.56;5048241;28;8897;-76
2022/04/21 03:56:47;;;;;;;;;39.50;39.00;;;;;8.28;60.35;99154.06;5045057;28;8886;-77
2022/04/21 03:59:16;;;;;;;;;43.50;38.75;;;;;8.33;60.28;99154.06;5052406;28;8824;-76
2022/04/21 04:01:45;;;;;;;;;39.50;36.75;;;;;8.41;60.36;99157.53;5048523;28;8843;-75
2022/04/21 04:04:14;;;;;;;;;52.00;44.50;;;;;8.49;60.40;99150.66;5065665;28;8852;-77
2022/04/21 04:12:17;;;;;;;;;46.00;38.25;;;;;8.59;60.28;99142.00;5049446;28;8866;-76
2022/04/21 04:14:45;;;;;;;;;44.25;41.25;;;;;8.60;59.24;99137.69;5027312;28;8845;-77
2022/04/21 04:17:14;;;;;;;;;36.75;35.25;;;;;8.66;59.39;99149.78;5029054;28;8846;-77
2022/04/21 04:19:43;;;;;;;;;42.75;38.75;;;;;8.66;59.95;99149.78;5045361;28;8842;-78
2022/04/21 04:22:14;;;;;;;;;39.25;35.75;;;;;8.69;59.19;99152.41;5045484;28;8830;-79
2022/04/21 04:24:45;;;;;;;;;36.00;36.00;;;;;8.80;59.52;99155.03;5029262;28;8966;-78
2022/04/21 04:27:13;;;;;;;;;35.00;33.25;;;;;8.83;59.35;99150.69;5044764;28;8859;-77
2022/04/21 04:29:42;;;;;;;;;57.00;43.25;;;;;8.90;59.65;99156.75;5053932;28;8939;-77
2022/04/21 04:32:10;;;;;;;;;43.75;38.25;;;;;8.96;60.01;99160.22;5064584;28;8871;-76
2022/04/21 04:34:39;;;;;;;;;38.25;36.00;;;;;9.02;59.45;99161.94;5047892;28;8863;-77
2022/04/21 04:37:08;;;;;;;;;34.25;32.50;;;;;9.13;59.69;99155.00;5044399;28;8919;-75
2022/04/21 04:39:37;;;;;;;;;64.75;51.25;;;;;9.14;59.29;99148.91;5046388;28;8866;-76
2022/04/21 04:42:20;;;;;;;;;43.33;38.33;;;;;9.27;59.12;99141.13;5044380;28;8938;-79
2022/04/21 04:46:34;;;;;;;;;30.25;29.00;;;;;9.34;58.88;99148.03;5086309;28;8855;-78
2022/04/21 04:47:39;;;;;;;;;32.25;31.75;;;;;9.39;58.36;99148.88;5066898;28;9028;-78
2022/04/21 04:50:09;;;;;;;;;51.00;41.00;;;;;9.45;57.21;99148.00;5035417;28;8903;-75
2022/04/21 04:52:38;;;;;;;;;40.75;36.75;;;;;9.46;57.64;99155.81;5051803;28;8850;-76
2022/04/21 04:55:11;;;;;;;;;32.75;30.50;;;;;9.56;57.09;99154.03;5048775;28;8916;-76
2022/04/21 04:57:40;;;;;;;;;35.25;31.25;;;;;9.65;56.87;99151.41;5051145;28;9556;-76
2022/04/21 05:00:10;;;;;;;;;33.75;33.25;;;;;9.81;56.13;99152.25;5071414;28;8846;-78
2022/04/21 05:02:38;;;;;;;;;31.75;30.75;;;;;9.91;55.78;99156.53;5069508;28;9679;-76
2022/04/21 05:05:08;;;;;;;;;33.75;28.75;;;;;10.05;56.04;99153.84;5086539;28;8846;-76
2022/04/21 05:07:39;;;;;;;;;35.50;32.75;;;;;10.22;55.65;99153.78;5053150;28;8971;-77
2022/04/21 05:10:09;;;;;;;;;30.50;28.50;;;;;10.36;54.73;99155.47;5052931;28;8897;-79
2022/04/21 05:12:38;;;;;;;;;36.50;35.50;;;;;10.46;54.70;99151.94;5069954;28;8889;-78
2022/04/21 05:15:08;;;;;;;;;31.25;29.50;;;;;10.59;54.25;99137.09;5062272;28;9048;-76
2022/04/21 05:17:37;;;;;;;;;33.75;29.50;;;;;10.62;54.24;99148.34;4999661;28;8884;-78
2022/04/21 05:20:25;;;;;;;;;37.50;33.25;;;;;10.70;53.47;99153.53;5065605;28;8849;-78
2022/04/21 05:23:03;;;;;;;;;31.00;29.00;;;;;10.63;53.07;99154.44;4999863;28;8865;-77
2022/04/21 05:25:36;;;;;;;;;27.50;27.50;;;;;10.68;53.00;99158.75;5049082;28;9599;-77
2022/04/21 05:28:09;;;;;;;;;26.50;24.75;;;;;10.72;52.71;99150.00;5050559;28;8871;-76
2022/04/21 05:31:00;;;;;;;;;28.50;27.00;;;;;10.80;52.69;99151.72;5014600;28;8870;-77
2022/04/21 05:33:31;;;;;;;;;28.75;27.50;;;;;10.82;52.66;99156.03;5049248;28;8990;-79
2022/04/21 05:36:01;;;;;;;;;33.00;32.50;;;;;10.79;52.43;99161.25;5048032;28;8842;-77
2022/04/21 05:38:30;;;;;;;;;36.25;31.75;;;;;10.80;52.81;99152.56;5064234;28;8862;-77
2022/04/21 05:40:59;;;;;;;;;43.25;33.25;;;;;10.81;52.32;99156.91;5047643;28;8874;-76
2022/04/21 05:43:42;;;;;;;;;33.00;29.25;;;;;10.83;52.16;99160.38;5047871;28;8947;-77
2022/04/21 05:46:13;;;;;;;;;33.25;30.25;;;;;10.86;51.98;99175.13;5047317;28;8893;-77
2022/04/21 05:48:43;;;;;;;;;27.50;27.25;;;;;10.97;52.20;99169.84;5051564;28;8925;-76
2022/04/21 05:51:12;;;;;;;;;27.00;24.75;;;;;10.97;52.12;99173.28;5031689;28;8873;-77
2022/04/21 05:53:50;;;;;;;;;29.75;28.00;;;;;11.10;51.61;99153.19;5050354;28;8971;-79
2022/04/21 05:56:19;;;;;;;;;28.25;24.50;;;;;11.14;51.46;99138.38;5042220;28;9014;-78
2022/04/21 05:58:49;;;;;;;;;25.50;24.00;;;;;11.20;51.74;99136.56;5067168;28;8943;-79
2022/04/21 06:01:18;;;;;;;;;27.25;24.75;;;;;11.12;51.47;99141.84;5036985;28;9612;-80
2022/04/21 06:03:47;;;;;;;;;34.75;29.75;;;;;11.09;51.24;99141.00;5050492;28;8994;-77
2022/04/21 06:06:16;;;;;;;;;23.50;23.50;;;;;11.14;51.29;99130.53;5082370;28;8849;-79
2022/04/21 06:08:44;;;;;;;;;31.50;28.25;;;;;11.15;51.23;99133.13;5050153;28;8844;-78
2022/04/21 06:11:14;;;;;;;;;31.75;29.75;;;;;11.20;51.52;99138.31;5065337;28;8894;-79
2022/04/21 06:13:43;;;;;;;;;32.00;29.25;;;;;11.16;51.06;99147.06;5048590;28;8873;-78
2022/04/21 06:16:13;;;;;;;;;27.00;25.50;;;;;11.13;51.25;99147.91;5065837;28;8991;-79
2022/04/21 06:18:43;;;;;;;;;29.75;26.50;;;;;11.16;51.15;99142.69;5048186;28;8853;-77
2022/04/21 06:21:11;;;;;;;;;22.25;21.00;;;;;11.11;51.36;99134.91;5031370;28;8927;-77
2022/04/21 06:23:40;;;;;;;;;26.00;25.25;;;;;11.27;51.50;99137.38;5025557;28;9684;-76
2022/04/21 06:26:09;;;;;;;;;24.00;21.50;;;;;11.36;51.06;99131.16;5026901;28;9666;-79
2022/04/21 06:28:38;;;;;;;;;29.00;26.50;;;;;11.41;50.51;99132.00;5010451;28;8887;-78
2022/04/21 06:31:07;;;;;;;;;28.00;26.25;;;;;11.45;51.11;99131.06;4997561;28;8850;-77
2022/04/21 06:33:37;;;;;;;;;30.50;28.75;;;;;11.54;50.40;99136.19;4968844;28;8855;-77
2022/04/21 06:36:07;;;;;;;;;30.25;28.00;;;;;11.54;50.63;99133.59;4970374;28;8883;-79
2022/04/21 06:38:36;;;;;;;;;35.50;31.75;;;;;11.49;51.00;99136.28;4998498;28;8986;-78
2022/04/21 06:41:04;;;;;;;;;34.25;32.25;;;;;11.46;51.62;99130.22;4994076;28;8863;-77
2022/04/21 06:49:08;;;;;;;;;31.00;28.75;;;;;11.89;51.22;99135.81;5006136;28;8983;-78
2022/04/21 06:51:39;;;;;;;;;40.00;32.00;;;;;12.12;51.26;99131.16;5003377;28;8913;-76
2022/04/21 06:54:09;;;;;;;;;28.50;26.50;;;;;12.33;50.13;99130.88;4990891;28;9743;-81
2022/04/21 06:56:38;;;;;;;;;32.75;31.00;;;;;12.56;50.63;99129.69;4991181;28;9736;-81
2022/04/21 06:59:07;;;;;;;;;33.00;30.75;;;;;12.58;50.26;99115.69;4951309;28;8965;-80
2022/04/21 07:01:36;;;;;;;;;29.50;28.50;;;;;12.63;49.97;99133.94;5029973;28;8835;-78
2022/04/21 07:04:06;;;;;;;;;33.00;29.75;;;;;12.64;49.78;99130.41;5035620;28;8974;-81
2022/04/21 07:06:35;;;;;;;;;30.25;27.25;;;;;12.68;50.17;99126.84;5067869;28;8846;-80
2022/04/21 07:09:04;;;;;;;;;32.50;28.50;;;;;12.78;49.66;99128.47;5068110;28;8951;-80
2022/04/21 07:11:32;;;;;;;;;30.25;28.75;;;;;12.85;49.60;99124.84;5060238;28;8965;-76
2022/04/21 07:14:01;;;;;;;;;30.50;28.25;;;;;12.94;49.42;99130.81;5050095;28;8846;-78
2022/04/21 07:16:29;;;;;;;;;29.75;26.00;;;;;12.98;49.10;99124.63;5084077;28;8842;-78
2022/04/21 07:18:58;;;;;;;;;34.00;29.75;;;;;12.99;48.81;99115.91;5067314;28;8866;-76
2022/04/21 07:21:28;;;;;;;;;9.00;6.75;;;;;13.03;49.15;99128.03;5067501;28;9717;-77
2022/04/21 07:23:57;;;;;;;;;29.50;27.75;;;;;13.10;48.62;99120.94;5018779;28;8913;-79
2022/04/21 07:26:26;;;;;;;;;29.00;27.75;;;;;13.21;48.36;99127.72;5085135;28;8838;-80
2022/04/21 07:28:58;;;;;;;;;28.00;26.50;;;;;13.33;47.77;99123.19;5047744;28;8975;-80
2022/04/21 07:31:26;;;;;;;;;22.25;22.00;;;;;13.25;48.42;99128.50;5046569;28;8869;-79
2022/04/21 07:33:55;;;;;;;;;29.75;27.00;;;;;13.50;48.50;99133.34;5013870;28;8868;-80
2022/04/21 07:36:24;;;;;;;;;27.00;27.00;;;;;13.55;48.59;99132.34;5029616;28;8870;-80
2022/04/21 07:38:54;;;;;;;;;32.75;31.25;;;;;13.62;49.33;99135.72;5029756;28;8881;-79
2022/04/21 07:41:23;;;;;;;;;37.50;34.75;;;;;13.63;49.41;99135.69;5045086;28;8963;-79
2022/04/21 07:43:52;;;;;;;;;32.00;30.75;;;;;13.67;48.89;99136.50;5032550;28;8895;-79
2022/04/21 07:46:21;;;;;;;;;41.75;37.00;;;;;13.74;49.36;99139.84;5032059;28;8976;-78
2022/04/21 07:51:35;;;;;;;;;39.50;36.50;;;;;13.71;49.38;99132.06;5048531;28;8856;-80
2022/04/21 07:54:05;;;;;;;;;38.50;34.75;;;;;13.48;50.26;99136.00;5028779;28;8990;-76
2022/04/21 07:56:34;;;;;;;;;34.50;33.75;;;;;13.51;50.98;99140.31;5028310;28;8976;-76
2022/04/21 07:59:03;;;;;;;;;41.00;34.50;;;;;13.61;50.08;99128.72;5012028;28;8904;-76
2022/04/21 08:01:32;;;;;;;;;33.50;31.25;;;;;13.73;49.85;99131.13;5087288;28;8854;-77
2022/04/21 08:04:02;;;;;;;;;31.50;29.25;;;;;13.79;48.93;99133.63;5067960;28;8968;-77
2022/04/21 08:06:31;;;;;;;;;27.00;26.25;;;;;13.86;48.82;99126.50;5062643;28;8849;-79
2022/04/21 08:08:59;;;;;;;;;26.50;24.25;;;;;13.89;48.01;99136.06;5062075;28;8857;-77
2022/04/21 08:11:29;;;;;;;;;24.75;24.00;;;;;13.95;48.17;99136.81;5065799;28;8889;-77
2022/04/21 08:13:58;;;;;;;;;28.25;26.00;;;;;14.07;47.46;99137.44;5049900;28;8837;-77
2022/04/21 08:16:28;;;;;;;;;27.75;26.75;;;;;14.24;46.97;99127.44;5063730;28;9602;-78
2022/04/21 08:18:58;;;;;;;;;32.50;27.50;;;;;14.38;47.15;99132.38;5051479;28;8853;-76
2022/04/21 08:21:27;;;;;;;;;26.00;24.50;;;;;14.41;46.96;99125.28;5039787;28;8878;-76
2022/04/21 08:33:13;;;;;;;;;27.50;25.50;;;;;15.00;46.10;99131.78;4992156;28;8866;-77
2022/04/21 08:35:44;;;;;;;;;30.60;26.40;;;;;15.11;46.02;99127.13;4992356;28;8878;-76
2022/04/21 08:38:12;;;;;;;;;26.75;24.00;;;;;15.13;45.40;99133.19;4991752;28;8874;-78
2022/04/21 08:40:50;;;;;;;;;24.40;22.80;;;;;15.24;45.55;99121.56;4976374;28;8866;-77
2022/04/21 08:43:20;;;;;;;;;28.00;25.50;;;;;15.45;45.57;99131.50;4989991;28;8878;-77
2022/04/21 08:45:51;;;;;;;;;28.20;25.80;;;;;15.52;45.54;99126.91;4967869;28;8862;-76
2022/04/21 08:48:21;;;;;;;;;23.60;23.60;;;;;15.61;45.16;99116.16;4993857;28;9027;-77
2022/04/21 08:50:49;;;;;;;;;22.60;22.60;;;;;15.65;45.40;99116.94;4957246;28;8902;-76
2022/04/21 08:53:20;;;;;;;;;22.80;21.00;;;;;15.70;44.62;99131.66;4988834;28;8876;-76
2022/04/21 08:55:49;;;;;;;;;27.00;26.50;;;;;15.68;44.19;99128.22;4988970;28;8868;-77
2022/04/21 08:58:21;;;;;;;;;25.00;23.20;;;;;15.66;43.74;99124.78;4983001;28;8874;-77
2022/04/21 09:00:53;;;;;;;;;23.75;21.50;;;;;15.66;44.11;99127.41;5007347;28;8865;-77
2022/04/21 09:03:23;;;;;;;;;23.20;22.40;;;;;15.64;44.25;99131.84;4996239;28;9024;-76
2022/04/21 09:05:52;;;;;;;;;23.60;23.60;;;;;15.57;44.40;99125.88;5070296;28;8854;-76
2022/04/21 09:08:23;;;;;;;;;21.60;19.60;;;;;15.68;43.79;99128.22;5063044;28;8871;-77
2022/04/21 09:11:04;;;;;;;;;18.00;18.00;;;;;15.91;43.60;99130.22;5050582;28;8872;-77
2022/04/21 09:13:36;;;;;;;;;22.40;21.20;;;;;15.97;43.75;99134.44;5066468;28;8877;-76
2022/04/21 09:16:06;;;;;;;;;25.40;23.60;;;;;16.13;43.46;99135.72;5060861;28;8846;-77
2022/04/21 09:18:40;;;;;;;;;26.60;25.60;;;;;16.24;43.22;99135.41;5069423;28;8870;-76
2022/04/21 09:21:11;;;;;;;;;23.20;22.60;;;;;16.53;43.69;99128.38;5066764;28;8849;-77
2022/04/21 09:23:40;;;;;;;;;31.50;28.75;;;;;16.62;42.22;99128.09;5063501;28;8880;-77
2022/04/21 09:26:12;;;;;;;;;24.60;22.60;;;;;16.83;42.27;99125.72;5051899;28;8912;-76
2022/04/21 09:28:55;;;;;;;;;23.40;22.40;;;;;16.98;41.14;99125.19;5068595;28;8842;-78
2022/04/21 09:31:26;;;;;;;;;26.80;24.40;;;;;17.06;41.65;99122.31;5070022;28;8858;-77
2022/04/21 09:33:56;;;;;;;;;25.60;24.20;;;;;17.14;41.90;99122.88;5067935;28;8924;-78
2022/04/21 09:36:25;;;;;;;;;29.25;27.50;;;;;17.19;41.10;99123.59;5069317;28;8961;-77
2022/04/21 09:39:01;;;;;;;;;24.20;23.00;;;;;17.27;41.11;99131.25;5092537;28;8864;-79
2022/04/21 09:41:31;;;;;;;;;25.00;23.00;;;;;17.25;40.66;99122.53;5050379;28;8844;-76
2022/04/21 09:46:59;;;;;;;;;23.20;23.20;;;;;17.39;40.38;99122.03;5058527;28;9711;-79
2022/04/21 09:49:35;;;;;;;;;22.75;22.75;;;;;17.50;40.40;99111.97;5070507;28;8974;-79
2022/04/21 09:52:05;;;;;;;;;18.00;16.00;;;;;17.54;40.66;99110.94;5058134;28;8895;-78
2022/04/21 09:54:34;;;;;;;;;27.00;24.60;;;;;17.70;40.07;99112.13;5073453;28;8871;-78
2022/04/21 09:57:05;;;;;;;;;21.20;20.20;;;;;17.74;40.74;99111.09;5066854;28;8852;-75
2022/04/21 09:59:35;;;;;;;;;22.00;22.00;;;;;17.79;39.92;99113.56;5067183;28;8994;-77
2022/04/21 10:02:06;;;;;;;;;19.00;19.00;;;;;17.85;40.07;99108.09;5067049;28;8878;-79
2022/04/21 10:04:36;;;;;;;;;25.20;23.00;;;;;17.93;40.57;99099.88;5086482;28;8964;-77
2022/04/21 10:07:06;;;;;;;;;24.60;24.00;;;;;18.00;40.18;99101.38;5066369;28;8852;-77
2022/04/21 10:09:34;;;;;;;;;21.60;20.60;;;;;18.12;39.96;99100.03;5051241;28;8883;-76
2022/04/21 10:12:05;;;;;;;;;17.40;17.00;;;;;18.08;39.92;99099.28;5064733;28;8902;-77
2022/04/21 10:14:36;;;;;;;;;22.20;22.20;;;;;18.15;39.61;99102.56;5086214;28;8866;-76
2022/04/21 10:17:09;;;;;;;;;22.40;22.40;;;;;18.29;39.55;99084.41;5053237;28;8936;-76
2022/04/21 10:19:38;;;;;;;;;20.60;20.60;;;;;18.23;39.19;99086.44;5069506;28;8846;-76
2022/04/21 10:22:14;;;;;;;;;17.80;16.40;;;;;18.32;39.62;99086.06;5052129;28;9606;-76
2022/04/21 10:24:44;;;;;;;;;19.00;18.20;;;;;18.30;39.03;99085.28;5066467;28;9653;-77
2022/04/21 10:27:36;;;;;;;;;21.80;18.40;;;;;18.33;38.48;99074.59;5069084;28;8866;-77
2022/04/21 10:30:15;;;;;;;;;22.00;20.20;;;;;18.38;37.73;99069.13;5050765;28;8858;-77
2022/04/21 10:32:52;;;;;;;;;17.60;17.20;;;;;18.44;37.37;99076.78;5067103;28;8973;-76
2022/04/21 10:35:38;;;;;;;;;16.80;15.40;;;;;18.51;36.71;99078.28;5049135;28;8841;-76
2022/04/21 10:38:22;;;;;;;;;18.80;18.60;;;;;18.65;35.19;99064.50;5047417;28;8873;-77
2022/04/21 10:40:56;;;;;;;;;17.20;15.00;;;;;18.73;35.03;99067.66;5066862;28;8996;-76
2022/04/21 10:43:24;;;;;;;;;12.20;11.00;;;;;18.78;33.73;99057.78;5065748;28;8870;-78
2022/04/21 10:46:05;;;;;;;;;13.40;13.40;;;;;19.03;33.29;99057.63;5066001;28;10011;-76
2022/04/21 10:48:41;;;;;;;;;14.40;13.20;;;;;19.15;33.09;99055.38;5051268;28;8895;-77
2022/04/21 10:51:10;;;;;;;;;12.80;12.20;;;;;19.21;32.94;99055.13;5058506;28;9612;-75
2022/04/21 10:59:30;;;;;;;;;11.40;11.40;;;;;19.55;32.20;99045.69;5083410;28;8863;-79
2022/04/21 11:02:12;;;;;;;;;13.00;12.00;;;;;19.70;32.31;99049.41;5050063;28;8866;-77
2022/04/21 11:04:41;;;;;;;;;12.80;12.40;;;;;19.77;31.38;99049.09;5067908;28;8866;-76
2022/04/21 11:07:12;;;;;;;;;14.00;13.20;;;;;19.69;31.88;99043.25;5066456;28;8842;-77
2022/04/21 11:09:44;;;;;;;;;14.00;14.00;;;;;19.95;32.10;99043.88;5068303;28;8834;-76
2022/04/21 11:12:44;;;;;;;;;9.40;9.40;;;;;20.08;31.67;99039.72;5068203;28;8842;-78
2022/04/21 11:15:49;;;;;;;;;15.80;13.80;;;;;20.25;31.00;99045.06;5066485;28;8858;-75
2022/04/21 11:18:22;;;;;;;;;14.60;14.60;;;;;20.39;31.57;99043.53;5012044;28;8859;-76
2022/04/21 11:20:52;;;;;;;;;13.00;12.00;;;;;20.48;31.05;99045.72;5006461;28;8845;-78
2022/04/21 11:23:25;;;;;;;;;12.40;12.40;;;;;20.60;31.20;99047.81;4974280;28;8875;-77
2022/04/21 11:26:04;;;;;;;;;16.40;13.40;;;;;20.40;30.12;99037.31;5004190;28;9000;-77
2022/04/21 11:28:33;;;;;;;;;14.00;13.20;;;;;20.33;30.63;99047.31;5003946;28;8882;-76
2022/04/21 11:31:03;;;;;;;;;14.00;13.20;;;;;20.53;31.46;99043.72;4994674;28;8930;-77
2022/04/21 11:33:33;;;;;;;;;16.80;16.60;;;;;20.64;29.93;99032.59;4990595;28;8918;-78
2022/04/21 11:36:04;;;;;;;;;15.60;14.00;;;;;20.89;29.73;99037.53;5006455;28;8856;-77
2022/04/21 11:38:33;;;;;;;;;16.80;15.00;;;;;20.39;28.26;99030.28;4995960;28;8887;-77
2022/04/21 11:41:03;;;;;;;;;15.00;13.80;;;;;20.69;29.12;99032.38;5004119;28;9056;-78
2022/04/21 11:43:32;;;;;;;;;23.60;22.20;;;;;20.59;28.62;99039.91;4984587;28;8992;-76
2022/04/21 11:46:03;;;;;;;;;45.75;38.50;;;;;20.63;28.87;99029.09;4992249;28;8859;-76
2022/04/21 11:48:36;;;;;;;;;13.80;12.40;;;;;20.79;28.04;99029.19;5016075;28;8923;-76
2022/04/21 11:51:06;;;;;;;;;9.80;9.80;;;;;19.53;28.46;99029.88;5006576;28;8836;-76
2022/04/21 11:53:37;;;;;;;;;13.00;12.00;;;;;19.91;27.36;99029.94;5019832;28;8845;-78
2022/04/21 11:56:07;;;;;;;;;15.60;14.60;;;;;20.10;28.06;99024.63;5048706;28;8892;-75
2022/04/21 11:58:36;;;;;;;;;14.00;13.00;;;;;20.20;28.49;99025.03;5048910;28;8975;-78
2022/04/21 12:06:46;;;;;;;;;13.80;13.80;;;;;19.68;29.07;99025.69;5047186;28;8949;-77
2022/04/21 12:09:23;;;;;;;;;12.60;11.00;;;;;19.80;28.57;99025.13;5047755;28;8853;-75
2022/04/21 12:11:53;;;;;;;;;14.40;13.00;;;;;19.85;28.75;99019.63;5048443;28;8875;-78
2022/04/21 12:14:22;;;;;;;;;11.80;10.20;;;;;20.00;28.51;99023.31;5048781;28;8857;-77
2022/04/21 12:16:53;;;;;;;;;15.20;14.20;;;;;20.10;28.51;99013.19;5064462;28;8837;-75
2022/04/21 12:19:33;;;;;;;;;11.00;11.00;;;;;20.11;28.59;99018.38;5048796;28;8852;-75
2022/04/21 12:22:06;;;;;;;;;7.60;7.60;;;;;20.22;26.96;99007.28;5048476;28;8845;-76
2022/04/21 12:24:39;;;;;;;;;9.60;9.60;;;;;20.40;27.46;99001.06;5029923;28;8845;-76
2022/04/21 12:27:13;;;;;;;;;15.40;13.60;;;;;20.54;27.00;98994.22;5064016;28;8845;-76
2022/04/21 12:29:50;;;;;;;;;10.60;10.60;;;;;20.69;26.44;99000.59;5048312;28;8861;-76
2022/04/21 12:32:21;;;;;;;;;12.60;11.40;;;;;20.67;26.63;98998.00;5046043;28;8852;-76